sensor_id;sensor_type;location;lat;lon;timestamp;P1;durP1;ratioP1;P2;durP2;ratioP2
84759;SDS011;74983;51.084;11.086;2024-01-15T00:02:16;15.40;;;7.87;;
84759;SDS011;74983;51.084;11.086;2024-01-15T00:04:42;14.70;;;7.23;;
84759;SDS011;74983;51.084;11.086;2024-01-15T00:07:07;13.83;;;7.33;;
84759;SDS011;74983;51.084;11.086;2024-01-15T00:09:33;16.42;;;8.55;;
84759;SDS011;74983;51.084;11.086;2024-01-15T00:11:59;14.80;;;8.25;;
84759;SDS011;74983;51.084;11.086;2024-01-15T00:14:25;17.95;;;8.38;;
84759;SDS011;74983;51.084;11.086;2024-01-15T00:16:50;14.07;;;6.37;;
84759;SDS011;74983;51.084;11.086;2024-01-15T00:19:16;15.40;;;7.22;;
84759;SDS011;74983;51.084;11.086;2024-01-15T00:21:41;13.70;;;6.18;;
84759;SDS011;74983;51.084;11.086;2024-01-15T00:24:07;8.93;;;6.43;;
84759;SDS011;74983;51.084;11.086;2024-01-15T00:26:32;12.07;;;6.23;;
84759;SDS011;74983;51.084;11.086;2024-01-15T00:28:58;11.83;;;6.67;;
84759;SDS011;74983;51.084;11.086;2024-01-15T00:31:23;9.90;;;5.60;;
84759;SDS011;74983;51.084;11.086;2024-01-15T00:33:48;10.97;;;5.53;;
84759;SDS011;74983;51.084;11.086;2024-01-15T00:36:13;11.53;;;5.23;;
84759;SDS011;74983;51.084;11.086;2024-01-15T00:38:39;8.48;;;4.95;;
84759;SDS011;74983;51.084;11.086;2024-01-15T00:41:04;14.20;;;6.22;;
84759;SDS011;74983;51.084;11.086;2024-01-15T00:43:30;12.60;;;5.70;;
84759;SDS011;74983;51.084;11.086;2024-01-15T00:45:55;13.67;;;6.13;;
84759;SDS011;74983;51.084;11.086;2024-01-15T00:48:20;14.20;;;7.10;;
84759;SDS011;74983;51.084;11.086;2024-01-15T00:50:45;6.17;;;2.87;;
84759;SDS011;74983;51.084;11.086;2024-01-15T00:53:11;15.03;;;6.27;;
84759;SDS011;74983;51.084;11.086;2024-01-15T00:55:36;11.53;;;5.93;;
84759;SDS011;74983;51.084;11.086;2024-01-15T00:58:02;7.38;;;4.35;;
84759;SDS011;74983;51.084;11.086;2024-01-15T01:00:28;10.45;;;5.47;;
84759;SDS011;74983;51.084;11.086;2024-01-15T01:02:53;9.77;;;4.83;;
84759;SDS011;74983;51.084;11.086;2024-01-15T01:05:18;15.67;;;6.97;;
84759;SDS011;74983;51.084;11.086;2024-01-15T01:07:44;11.50;;;5.57;;
84759;SDS011;74983;51.084;11.086;2024-01-15T01:10:09;8.97;;;5.33;;
84759;SDS011;74983;51.084;11.086;2024-01-15T01:12:34;14.03;;;6.17;;
84759;SDS011;74983;51.084;11.086;2024-01-15T01:14:59;14.90;;;6.40;;
84759;SDS011;74983;51.084;11.086;2024-01-15T01:17:25;9.27;;;5.63;;
84759;SDS011;74983;51.084;11.086;2024-01-15T01:19:50;7.70;;;4.00;;
84759;SDS011;74983;51.084;11.086;2024-01-15T01:22:15;11.93;;;5.70;;
84759;SDS011;74983;51.084;11.086;2024-01-15T01:24:41;7.67;;;3.87;;
84759;SDS011;74983;51.084;11.086;2024-01-15T01:27:06;9.67;;;5.63;;
84759;SDS011;74983;51.084;11.086;2024-01-15T01:29:32;10.73;;;6.30;;
84759;SDS011;74983;51.084;11.086;2024-01-15T01:31:57;9.17;;;4.90;;
84759;SDS011;74983;51.084;11.086;2024-01-15T01:34:22;11.37;;;4.73;;
84759;SDS011;74983;51.084;11.086;2024-01-15T01:36:47;11.17;;;5.27;;
84759;SDS011;74983;51.084;11.086;2024-01-15T01:39:13;8.40;;;4.20;;
84759;SDS011;74983;51.084;11.086;2024-01-15T01:41:38;6.30;;;4.07;;
84759;SDS011;74983;51.084;11.086;2024-01-15T01:44:04;6.97;;;3.80;;
84759;SDS011;74983;51.084;11.086;2024-01-15T01:46:29;8.13;;;4.43;;
84759;SDS011;74983;51.084;11.086;2024-01-15T01:48:56;9.88;;;4.82;;
84759;SDS011;74983;51.084;11.086;2024-01-15T01:51:24;10.57;;;4.57;;
84759;SDS011;74983;51.084;11.086;2024-01-15T01:53:50;11.88;;;5.28;;
84759;SDS011;74983;51.084;11.086;2024-01-15T01:56:15;10.80;;;5.82;;
84759;SDS011;74983;51.084;11.086;2024-01-15T01:58:42;9.60;;;4.93;;
84759;SDS011;74983;51.084;11.086;2024-01-15T02:01:08;9.88;;;4.78;;
84759;SDS011;74983;51.084;11.086;2024-01-15T02:03:33;4.07;;;2.57;;
84759;SDS011;74983;51.084;11.086;2024-01-15T02:05:59;9.30;;;5.63;;
84759;SDS011;74983;51.084;11.086;2024-01-15T02:08:25;8.32;;;4.35;;
84759;SDS011;74983;51.084;11.086;2024-01-15T02:10:51;8.65;;;4.13;;
84759;SDS011;74983;51.084;11.086;2024-01-15T02:13:17;11.43;;;4.70;;
84759;SDS011;74983;51.084;11.086;2024-01-15T02:15:42;10.90;;;6.10;;
84759;SDS011;74983;51.084;11.086;2024-01-15T02:18:08;9.33;;;4.77;;
84759;SDS011;74983;51.084;11.086;2024-01-15T02:20:33;6.23;;;3.83;;
84759;SDS011;74983;51.084;11.086;2024-01-15T02:23:16;4.40;;;3.00;;
84759;SDS011;74983;51.084;11.086;2024-01-15T02:25:45;8.02;;;3.47;;
84759;SDS011;74983;51.084;11.086;2024-01-15T02:28:15;9.23;;;4.75;;
84759;SDS011;74983;51.084;11.086;2024-01-15T02:30:42;8.15;;;3.70;;
84759;SDS011;74983;51.084;11.086;2024-01-15T02:33:08;6.53;;;3.70;;
84759;SDS011;74983;51.084;11.086;2024-01-15T02:35:34;7.53;;;3.97;;
84759;SDS011;74983;51.084;11.086;2024-01-15T02:38:01;11.50;;;4.45;;
84759;SDS011;74983;51.084;11.086;2024-01-15T02:40:27;7.57;;;3.88;;
84759;SDS011;74983;51.084;11.086;2024-01-15T02:42:52;6.43;;;4.37;;
84759;SDS011;74983;51.084;11.086;2024-01-15T02:45:18;12.67;;;6.70;;
84759;SDS011;74983;51.084;11.086;2024-01-15T02:47:43;7.10;;;3.80;;
84759;SDS011;74983;51.084;11.086;2024-01-15T02:50:08;8.77;;;5.03;;
84759;SDS011;74983;51.084;11.086;2024-01-15T02:52:33;4.85;;;3.08;;
84759;SDS011;74983;51.084;11.086;2024-01-15T02:54:59;9.53;;;4.10;;
84759;SDS011;74983;51.084;11.086;2024-01-15T02:57:24;8.37;;;4.27;;
84759;SDS011;74983;51.084;11.086;2024-01-15T02:59:49;10.50;;;5.67;;
84759;SDS011;74983;51.084;11.086;2024-01-15T03:02:14;8.87;;;4.83;;
84759;SDS011;74983;51.084;11.086;2024-01-15T03:04:43;13.00;;;5.53;;
84759;SDS011;74983;51.084;11.086;2024-01-15T03:07:09;7.28;;;4.28;;
84759;SDS011;74983;51.084;11.086;2024-01-15T03:09:34;8.60;;;4.60;;
84759;SDS011;74983;51.084;11.086;2024-01-15T03:11:59;9.43;;;5.00;;
84759;SDS011;74983;51.084;11.086;2024-01-15T03:14:24;14.27;;;5.87;;
84759;SDS011;74983;51.084;11.086;2024-01-15T03:16:51;6.82;;;4.65;;
84759;SDS011;74983;51.084;11.086;2024-01-15T03:19:16;7.13;;;4.03;;
84759;SDS011;74983;51.084;11.086;2024-01-15T03:21:41;7.33;;;3.53;;
84759;SDS011;74983;51.084;11.086;2024-01-15T03:24:06;7.17;;;4.00;;
84759;SDS011;74983;51.084;11.086;2024-01-15T03:26:32;7.33;;;4.20;;
84759;SDS011;74983;51.084;11.086;2024-01-15T03:28:57;5.57;;;3.17;;
84759;SDS011;74983;51.084;11.086;2024-01-15T03:31:22;9.60;;;6.37;;
84759;SDS011;74983;51.084;11.086;2024-01-15T03:33:47;7.73;;;4.47;;
84759;SDS011;74983;51.084;11.086;2024-01-15T03:36:13;6.33;;;3.73;;
84759;SDS011;74983;51.084;11.086;2024-01-15T03:38:41;10.17;;;5.90;;
84759;SDS011;74983;51.084;11.086;2024-01-15T03:41:07;6.50;;;4.13;;
84759;SDS011;74983;51.084;11.086;2024-01-15T03:43:32;7.35;;;3.83;;
84759;SDS011;74983;51.084;11.086;2024-01-15T03:45:58;7.73;;;4.57;;
84759;SDS011;74983;51.084;11.086;2024-01-15T03:48:23;6.00;;;3.17;;
84759;SDS011;74983;51.084;11.086;2024-01-15T03:50:48;7.20;;;5.50;;
84759;SDS011;74983;51.084;11.086;2024-01-15T03:53:14;9.10;;;4.13;;
84759;SDS011;74983;51.084;11.086;2024-01-15T03:55:39;6.07;;;3.67;;
84759;SDS011;74983;51.084;11.086;2024-01-15T03:58:04;4.63;;;2.93;;
84759;SDS011;74983;51.084;11.086;2024-01-15T04:00:29;6.33;;;4.10;;
84759;SDS011;74983;51.084;11.086;2024-01-15T04:02:54;14.47;;;5.37;;
84759;SDS011;74983;51.084;11.086;2024-01-15T04:05:20;6.27;;;3.63;;
84759;SDS011;74983;51.084;11.086;2024-01-15T04:07:45;11.40;;;5.00;;
84759;SDS011;74983;51.084;11.086;2024-01-15T04:10:10;6.67;;;3.90;;
84759;SDS011;74983;51.084;11.086;2024-01-15T04:12:36;5.20;;;3.53;;
84759;SDS011;74983;51.084;11.086;2024-01-15T04:15:01;7.27;;;4.47;;
84759;SDS011;74983;51.084;11.086;2024-01-15T04:17:27;8.40;;;4.07;;
84759;SDS011;74983;51.084;11.086;2024-01-15T04:19:52;4.07;;;2.57;;
84759;SDS011;74983;51.084;11.086;2024-01-15T04:22:17;10.03;;;3.97;;
84759;SDS011;74983;51.084;11.086;2024-01-15T04:24:42;5.63;;;4.03;;
84759;SDS011;74983;51.084;11.086;2024-01-15T04:27:08;7.97;;;4.07;;
84759;SDS011;74983;51.084;11.086;2024-01-15T04:29:33;4.70;;;3.47;;
84759;SDS011;74983;51.084;11.086;2024-01-15T04:31:58;6.10;;;3.13;;
84759;SDS011;74983;51.084;11.086;2024-01-15T04:34:23;6.60;;;3.97;;
84759;SDS011;74983;51.084;11.086;2024-01-15T04:36:49;8.63;;;4.83;;
84759;SDS011;74983;51.084;11.086;2024-01-15T04:39:14;5.60;;;3.03;;
84759;SDS011;74983;51.084;11.086;2024-01-15T04:41:39;5.30;;;2.57;;
84759;SDS011;74983;51.084;11.086;2024-01-15T04:44:04;5.07;;;3.00;;
84759;SDS011;74983;51.084;11.086;2024-01-15T04:46:30;6.70;;;3.80;;
84759;SDS011;74983;51.084;11.086;2024-01-15T04:48:55;6.73;;;3.53;;
84759;SDS011;74983;51.084;11.086;2024-01-15T04:51:20;6.20;;;3.10;;
84759;SDS011;74983;51.084;11.086;2024-01-15T04:53:45;3.90;;;2.37;;
84759;SDS011;74983;51.084;11.086;2024-01-15T04:56:11;5.10;;;3.43;;
84759;SDS011;74983;51.084;11.086;2024-01-15T04:58:36;5.87;;;4.07;;
84759;SDS011;74983;51.084;11.086;2024-01-15T05:01:01;5.90;;;3.53;;
84759;SDS011;74983;51.084;11.086;2024-01-15T05:03:26;6.23;;;2.57;;
84759;SDS011;74983;51.084;11.086;2024-01-15T05:05:52;6.00;;;3.60;;
84759;SDS011;74983;51.084;11.086;2024-01-15T05:08:17;3.90;;;2.60;;
84759;SDS011;74983;51.084;11.086;2024-01-15T05:10:42;5.83;;;2.57;;
84759;SDS011;74983;51.084;11.086;2024-01-15T05:13:07;7.73;;;4.70;;
84759;SDS011;74983;51.084;11.086;2024-01-15T05:15:33;4.80;;;2.90;;
84759;SDS011;74983;51.084;11.086;2024-01-15T05:17:58;4.00;;;2.60;;
84759;SDS011;74983;51.084;11.086;2024-01-15T05:20:23;7.37;;;4.23;;
84759;SDS011;74983;51.084;11.086;2024-01-15T05:22:48;8.90;;;3.90;;
84759;SDS011;74983;51.084;11.086;2024-01-15T05:25:14;3.97;;;2.73;;
84759;SDS011;74983;51.084;11.086;2024-01-15T05:27:39;6.27;;;2.87;;
84759;SDS011;74983;51.084;11.086;2024-01-15T05:30:04;3.23;;;2.30;;
84759;SDS011;74983;51.084;11.086;2024-01-15T05:32:30;3.67;;;3.08;;
84759;SDS011;74983;51.084;11.086;2024-01-15T05:34:55;4.17;;;3.10;;
84759;SDS011;74983;51.084;11.086;2024-01-15T05:37:20;4.33;;;3.13;;
84759;SDS011;74983;51.084;11.086;2024-01-15T05:39:46;5.53;;;3.50;;
84759;SDS011;74983;51.084;11.086;2024-01-15T05:42:11;4.50;;;2.67;;
84759;SDS011;74983;51.084;11.086;2024-01-15T05:44:36;7.87;;;3.00;;
84759;SDS011;74983;51.084;11.086;2024-01-15T05:47:01;7.27;;;4.07;;
84759;SDS011;74983;51.084;11.086;2024-01-15T05:49:28;7.82;;;3.83;;
84759;SDS011;74983;51.084;11.086;2024-01-15T05:51:54;8.30;;;4.13;;
84759;SDS011;74983;51.084;11.086;2024-01-15T05:54:20;5.37;;;3.47;;
84759;SDS011;74983;51.084;11.086;2024-01-15T05:56:45;7.07;;;3.45;;
84759;SDS011;74983;51.084;11.086;2024-01-15T05:59:10;4.72;;;3.25;;
84759;SDS011;74983;51.084;11.086;2024-01-15T06:01:35;2.53;;;1.60;;
84759;SDS011;74983;51.084;11.086;2024-01-15T06:04:01;6.70;;;4.43;;
84759;SDS011;74983;51.084;11.086;2024-01-15T06:06:26;6.32;;;2.70;;
84759;SDS011;74983;51.084;11.086;2024-01-15T06:08:52;2.87;;;2.17;;
84759;SDS011;74983;51.084;11.086;2024-01-15T06:11:17;8.57;;;2.63;;
84759;SDS011;74983;51.084;11.086;2024-01-15T06:13:42;8.23;;;5.00;;
84759;SDS011;74983;51.084;11.086;2024-01-15T06:16:14;5.23;;;2.40;;
84759;SDS011;74983;51.084;11.086;2024-01-15T06:18:41;5.88;;;2.30;;
84759;SDS011;74983;51.084;11.086;2024-01-15T06:21:06;7.53;;;3.73;;
84759;SDS011;74983;51.084;11.086;2024-01-15T06:23:31;7.50;;;3.77;;
84759;SDS011;74983;51.084;11.086;2024-01-15T06:25:57;4.80;;;2.83;;
84759;SDS011;74983;51.084;11.086;2024-01-15T06:28:22;4.30;;;2.30;;
84759;SDS011;74983;51.084;11.086;2024-01-15T06:30:47;3.33;;;1.77;;
84759;SDS011;74983;51.084;11.086;2024-01-15T06:33:13;4.47;;;2.80;;
84759;SDS011;74983;51.084;11.086;2024-01-15T06:35:38;4.80;;;3.97;;
84759;SDS011;74983;51.084;11.086;2024-01-15T06:38:03;5.33;;;3.30;;
84759;SDS011;74983;51.084;11.086;2024-01-15T06:40:28;7.50;;;3.60;;
84759;SDS011;74983;51.084;11.086;2024-01-15T06:42:54;6.97;;;4.00;;
84759;SDS011;74983;51.084;11.086;2024-01-15T06:45:19;9.27;;;4.20;;
84759;SDS011;74983;51.084;11.086;2024-01-15T06:47:44;4.20;;;2.70;;
84759;SDS011;74983;51.084;11.086;2024-01-15T06:50:09;8.60;;;4.33;;
84759;SDS011;74983;51.084;11.086;2024-01-15T06:52:34;7.83;;;4.13;;
84759;SDS011;74983;51.084;11.086;2024-01-15T06:55:00;7.40;;;5.37;;
84759;SDS011;74983;51.084;11.086;2024-01-15T06:57:25;4.47;;;2.40;;
84759;SDS011;74983;51.084;11.086;2024-01-15T06:59:50;5.60;;;4.47;;
84759;SDS011;74983;51.084;11.086;2024-01-15T07:02:15;3.30;;;2.33;;
84759;SDS011;74983;51.084;11.086;2024-01-15T07:04:41;3.97;;;2.83;;
84759;SDS011;74983;51.084;11.086;2024-01-15T07:07:06;5.17;;;2.27;;
84759;SDS011;74983;51.084;11.086;2024-01-15T07:09:31;3.67;;;1.97;;
84759;SDS011;74983;51.084;11.086;2024-01-15T07:11:56;6.43;;;3.13;;
84759;SDS011;74983;51.084;11.086;2024-01-15T07:14:23;4.57;;;3.58;;
84759;SDS011;74983;51.084;11.086;2024-01-15T07:16:48;2.97;;;2.00;;
84759;SDS011;74983;51.084;11.086;2024-01-15T07:19:13;8.80;;;4.40;;
84759;SDS011;74983;51.084;11.086;2024-01-15T07:21:38;9.80;;;5.03;;
84759;SDS011;74983;51.084;11.086;2024-01-15T07:24:05;5.30;;;2.78;;
84759;SDS011;74983;51.084;11.086;2024-01-15T07:26:30;6.93;;;3.43;;
84759;SDS011;74983;51.084;11.086;2024-01-15T07:28:56;7.82;;;2.90;;
84759;SDS011;74983;51.084;11.086;2024-01-15T07:31:21;7.55;;;3.30;;
84759;SDS011;74983;51.084;11.086;2024-01-15T07:33:47;22.37;;;2.87;;
84759;SDS011;74983;51.084;11.086;2024-01-15T07:36:12;5.97;;;3.40;;
84759;SDS011;74983;51.084;11.086;2024-01-15T07:38:37;7.43;;;3.70;;
84759;SDS011;74983;51.084;11.086;2024-01-15T07:41:02;2.60;;;2.20;;
84759;SDS011;74983;51.084;11.086;2024-01-15T07:43:28;5.80;;;2.90;;
84759;SDS011;74983;51.084;11.086;2024-01-15T07:45:54;7.60;;;3.40;;
84759;SDS011;74983;51.084;11.086;2024-01-15T07:48:19;4.00;;;3.00;;
84759;SDS011;74983;51.084;11.086;2024-01-15T07:50:45;6.72;;;3.05;;
84759;SDS011;74983;51.084;11.086;2024-01-15T07:53:10;6.53;;;3.05;;
84759;SDS011;74983;51.084;11.086;2024-01-15T07:55:35;5.70;;;2.87;;
84759;SDS011;74983;51.084;11.086;2024-01-15T07:58:01;6.40;;;3.27;;
84759;SDS011;74983;51.084;11.086;2024-01-15T08:00:26;5.65;;;3.13;;
84759;SDS011;74983;51.084;11.086;2024-01-15T08:02:52;6.97;;;3.33;;
84759;SDS011;74983;51.084;11.086;2024-01-15T08:05:18;6.35;;;3.25;;
84759;SDS011;74983;51.084;11.086;2024-01-15T08:07:43;5.10;;;3.63;;
84759;SDS011;74983;51.084;11.086;2024-01-15T08:10:09;7.00;;;3.30;;
84759;SDS011;74983;51.084;11.086;2024-01-15T08:12:34;7.85;;;2.92;;
84759;SDS011;74983;51.084;11.086;2024-01-15T08:15:00;5.97;;;3.37;;
84759;SDS011;74983;51.084;11.086;2024-01-15T08:17:25;6.93;;;3.83;;
84759;SDS011;74983;51.084;11.086;2024-01-15T08:19:53;5.50;;;3.22;;
84759;SDS011;74983;51.084;11.086;2024-01-15T08:22:19;5.30;;;2.30;;
84759;SDS011;74983;51.084;11.086;2024-01-15T08:24:45;4.30;;;2.83;;
84759;SDS011;74983;51.084;11.086;2024-01-15T08:27:10;4.38;;;2.20;;
84759;SDS011;74983;51.084;11.086;2024-01-15T08:29:35;8.30;;;3.47;;
84759;SDS011;74983;51.084;11.086;2024-01-15T08:32:01;4.67;;;2.50;;
84759;SDS011;74983;51.084;11.086;2024-01-15T08:34:26;5.30;;;3.17;;
84759;SDS011;74983;51.084;11.086;2024-01-15T08:36:51;7.63;;;4.20;;
84759;SDS011;74983;51.084;11.086;2024-01-15T08:39:17;4.53;;;2.77;;
84759;SDS011;74983;51.084;11.086;2024-01-15T08:41:44;10.60;;;4.00;;
84759;SDS011;74983;51.084;11.086;2024-01-15T08:44:09;6.78;;;3.50;;
84759;SDS011;74983;51.084;11.086;2024-01-15T08:46:34;8.33;;;3.77;;
84759;SDS011;74983;51.084;11.086;2024-01-15T08:49:00;6.80;;;2.80;;
84759;SDS011;74983;51.084;11.086;2024-01-15T08:51:25;9.90;;;3.93;;
84759;SDS011;74983;51.084;11.086;2024-01-15T08:53:50;5.60;;;3.87;;
84759;SDS011;74983;51.084;11.086;2024-01-15T08:56:16;4.10;;;2.57;;
84759;SDS011;74983;51.084;11.086;2024-01-15T08:58:41;5.73;;;3.60;;
84759;SDS011;74983;51.084;11.086;2024-01-15T09:01:06;6.27;;;3.33;;
84759;SDS011;74983;51.084;11.086;2024-01-15T09:03:31;4.90;;;2.53;;
84759;SDS011;74983;51.084;11.086;2024-01-15T09:05:58;6.60;;;3.42;;
84759;SDS011;74983;51.084;11.086;2024-01-15T09:08:24;8.60;;;3.87;;
84759;SDS011;74983;51.084;11.086;2024-01-15T09:10:49;4.85;;;3.28;;
84759;SDS011;74983;51.084;11.086;2024-01-15T09:13:15;7.67;;;3.63;;
84759;SDS011;74983;51.084;11.086;2024-01-15T09:15:40;7.43;;;2.63;;
84759;SDS011;74983;51.084;11.086;2024-01-15T09:18:07;2.35;;;2.15;;
84759;SDS011;74983;51.084;11.086;2024-01-15T09:20:32;4.63;;;2.70;;
84759;SDS011;74983;51.084;11.086;2024-01-15T09:22:58;10.23;;;3.50;;
84759;SDS011;74983;51.084;11.086;2024-01-15T09:25:23;5.40;;;2.07;;
84759;SDS011;74983;51.084;11.086;2024-01-15T09:27:48;6.23;;;3.60;;
84759;SDS011;74983;51.084;11.086;2024-01-15T09:30:13;7.47;;;3.93;;
84759;SDS011;74983;51.084;11.086;2024-01-15T09:32:39;14.70;;;4.55;;
84759;SDS011;74983;51.084;11.086;2024-01-15T09:35:04;5.63;;;2.17;;
84759;SDS011;74983;51.084;11.086;2024-01-15T09:37:31;3.85;;;2.50;;
84759;SDS011;74983;51.084;11.086;2024-01-15T09:39:56;4.07;;;1.97;;
84759;SDS011;74983;51.084;11.086;2024-01-15T09:42:22;6.67;;;3.97;;
84759;SDS011;74983;51.084;11.086;2024-01-15T09:44:49;5.57;;;2.97;;
84759;SDS011;74983;51.084;11.086;2024-01-15T09:47:15;4.35;;;3.38;;
84759;SDS011;74983;51.084;11.086;2024-01-15T09:49:41;3.60;;;2.60;;
84759;SDS011;74983;51.084;11.086;2024-01-15T09:52:07;4.85;;;2.45;;
84759;SDS011;74983;51.084;11.086;2024-01-15T09:54:33;10.10;;;4.45;;
84759;SDS011;74983;51.084;11.086;2024-01-15T09:56:58;8.48;;;3.80;;
84759;SDS011;74983;51.084;11.086;2024-01-15T09:59:25;4.95;;;2.72;;
84759;SDS011;74983;51.084;11.086;2024-01-15T10:01:51;8.90;;;3.65;;
84759;SDS011;74983;51.084;11.086;2024-01-15T10:04:18;5.07;;;2.92;;
84759;SDS011;74983;51.084;11.086;2024-01-15T10:06:44;5.23;;;2.67;;
84759;SDS011;74983;51.084;11.086;2024-01-15T10:09:11;6.00;;;3.45;;
84759;SDS011;74983;51.084;11.086;2024-01-15T10:11:39;7.15;;;3.20;;
84759;SDS011;74983;51.084;11.086;2024-01-15T10:14:04;6.27;;;3.20;;
84759;SDS011;74983;51.084;11.086;2024-01-15T10:16:30;7.50;;;3.70;;
84759;SDS011;74983;51.084;11.086;2024-01-15T10:18:55;7.07;;;3.30;;
84759;SDS011;74983;51.084;11.086;2024-01-15T10:21:20;10.53;;;4.17;;
84759;SDS011;74983;51.084;11.086;2024-01-15T10:23:45;5.87;;;3.33;;
84759;SDS011;74983;51.084;11.086;2024-01-15T10:26:11;6.25;;;3.97;;
84759;SDS011;74983;51.084;11.086;2024-01-15T10:28:37;4.00;;;2.50;;
84759;SDS011;74983;51.084;11.086;2024-01-15T10:31:02;6.50;;;3.10;;
84759;SDS011;74983;51.084;11.086;2024-01-15T10:33:28;6.07;;;3.42;;
84759;SDS011;74983;51.084;11.086;2024-01-15T10:36:00;5.80;;;3.43;;
84759;SDS011;74983;51.084;11.086;2024-01-15T10:38:25;5.90;;;3.35;;
84759;SDS011;74983;51.084;11.086;2024-01-15T10:40:54;3.92;;;2.35;;
84759;SDS011;74983;51.084;11.086;2024-01-15T10:43:21;9.77;;;2.45;;
84759;SDS011;74983;51.084;11.086;2024-01-15T10:45:47;8.43;;;3.30;;
84759;SDS011;74983;51.084;11.086;2024-01-15T10:48:14;8.13;;;3.10;;
84759;SDS011;74983;51.084;11.086;2024-01-15T10:50:41;4.57;;;3.00;;
84759;SDS011;74983;51.084;11.086;2024-01-15T10:53:07;5.88;;;3.53;;
84759;SDS011;74983;51.084;11.086;2024-01-15T10:55:35;8.13;;;4.13;;
84759;SDS011;74983;51.084;11.086;2024-01-15T10:58:01;6.97;;;3.50;;
84759;SDS011;74983;51.084;11.086;2024-01-15T11:00:28;9.40;;;3.70;;
84759;SDS011;74983;51.084;11.086;2024-01-15T11:02:54;4.22;;;2.90;;
84759;SDS011;74983;51.084;11.086;2024-01-15T11:05:21;3.65;;;2.47;;
84759;SDS011;74983;51.084;11.086;2024-01-15T11:07:50;7.63;;;3.42;;
84759;SDS011;74983;51.084;11.086;2024-01-15T11:13:10;3.33;;;2.45;;
84759;SDS011;74983;51.084;11.086;2024-01-15T11:15:58;5.38;;;3.10;;
84759;SDS011;74983;51.084;11.086;2024-01-15T11:18:28;6.20;;;2.60;;
84759;SDS011;74983;51.084;11.086;2024-01-15T11:23:45;7.50;;;2.95;;
84759;SDS011;74983;51.084;11.086;2024-01-15T11:26:26;6.05;;;3.05;;
84759;SDS011;74983;51.084;11.086;2024-01-15T11:28:53;7.88;;;2.97;;
84759;SDS011;74983;51.084;11.086;2024-01-15T11:31:19;5.20;;;3.25;;
84759;SDS011;74983;51.084;11.086;2024-01-15T11:33:49;4.30;;;2.97;;
84759;SDS011;74983;51.084;11.086;2024-01-15T11:36:14;5.07;;;3.13;;
84759;SDS011;74983;51.084;11.086;2024-01-15T11:38:40;5.03;;;2.97;;
84759;SDS011;74983;51.084;11.086;2024-01-15T11:41:13;2.57;;;1.87;;
84759;SDS011;74983;51.084;11.086;2024-01-15T11:43:40;6.53;;;3.22;;
84759;SDS011;74983;51.084;11.086;2024-01-15T11:46:05;8.07;;;3.33;;
84759;SDS011;74983;51.084;11.086;2024-01-15T11:48:42;5.68;;;3.13;;
84759;SDS011;74983;51.084;11.086;2024-01-15T11:51:10;5.07;;;2.03;;
84759;SDS011;74983;51.084;11.086;2024-01-15T11:53:40;5.95;;;2.85;;
84759;SDS011;74983;51.084;11.086;2024-01-15T11:56:16;3.70;;;2.92;;
84759;SDS011;74983;51.084;11.086;2024-01-15T11:58:42;6.15;;;3.17;;
84759;SDS011;74983;51.084;11.086;2024-01-15T12:01:08;5.53;;;3.00;;
84759;SDS011;74983;51.084;11.086;2024-01-15T12:03:35;4.72;;;2.60;;
84759;SDS011;74983;51.084;11.086;2024-01-15T12:06:00;11.67;;;4.13;;
84759;SDS011;74983;51.084;11.086;2024-01-15T12:08:26;4.53;;;2.58;;
84759;SDS011;74983;51.084;11.086;2024-01-15T12:10:52;4.95;;;3.33;;
84759;SDS011;74983;51.084;11.086;2024-01-15T12:13:17;4.60;;;2.58;;
84759;SDS011;74983;51.084;11.086;2024-01-15T12:15:43;4.80;;;2.73;;
84759;SDS011;74983;51.084;11.086;2024-01-15T12:18:09;4.65;;;2.90;;
84759;SDS011;74983;51.084;11.086;2024-01-15T12:20:37;4.75;;;3.15;;
84759;SDS011;74983;51.084;11.086;2024-01-15T12:23:02;6.75;;;3.60;;
84759;SDS011;74983;51.084;11.086;2024-01-15T12:25:29;7.47;;;3.10;;
84759;SDS011;74983;51.084;11.086;2024-01-15T12:27:55;8.18;;;3.75;;
84759;SDS011;74983;51.084;11.086;2024-01-15T12:30:21;6.18;;;3.58;;
84759;SDS011;74983;51.084;11.086;2024-01-15T12:32:47;5.13;;;2.88;;
84759;SDS011;74983;51.084;11.086;2024-01-15T12:35:13;5.47;;;2.80;;
84759;SDS011;74983;51.084;11.086;2024-01-15T12:37:39;5.65;;;3.05;;
84759;SDS011;74983;51.084;11.086;2024-01-15T12:40:06;4.05;;;2.55;;
84759;SDS011;74983;51.084;11.086;2024-01-15T12:42:32;7.07;;;3.25;;
84759;SDS011;74983;51.084;11.086;2024-01-15T12:44:59;5.57;;;3.08;;
84759;SDS011;74983;51.084;11.086;2024-01-15T12:47:25;4.07;;;2.70;;
84759;SDS011;74983;51.084;11.086;2024-01-15T12:49:51;4.50;;;2.78;;
84759;SDS011;74983;51.084;11.086;2024-01-15T12:52:19;6.18;;;3.72;;
84759;SDS011;74983;51.084;11.086;2024-01-15T12:54:46;4.82;;;2.88;;
84759;SDS011;74983;51.084;11.086;2024-01-15T12:57:12;9.27;;;3.78;;
84759;SDS011;74983;51.084;11.086;2024-01-15T12:59:37;3.00;;;1.83;;
84759;SDS011;74983;51.084;11.086;2024-01-15T13:02:03;3.57;;;1.83;;
84759;SDS011;74983;51.084;11.086;2024-01-15T13:04:28;5.20;;;2.42;;
84759;SDS011;74983;51.084;11.086;2024-01-15T13:06:54;3.88;;;2.63;;
84759;SDS011;74983;51.084;11.086;2024-01-15T13:09:19;4.17;;;2.47;;
84759;SDS011;74983;51.084;11.086;2024-01-15T13:11:45;5.30;;;3.10;;
84759;SDS011;74983;51.084;11.086;2024-01-15T13:14:11;3.35;;;2.50;;
84759;SDS011;74983;51.084;11.086;2024-01-15T13:16:38;4.97;;;2.70;;
84759;SDS011;74983;51.084;11.086;2024-01-15T13:19:03;5.37;;;3.57;;
84759;SDS011;74983;51.084;11.086;2024-01-15T13:21:29;8.17;;;4.53;;
84759;SDS011;74983;51.084;11.086;2024-01-15T13:23:55;7.10;;;3.63;;
84759;SDS011;74983;51.084;11.086;2024-01-15T13:26:20;4.43;;;3.43;;
84759;SDS011;74983;51.084;11.086;2024-01-15T13:28:45;6.00;;;3.70;;
84759;SDS011;74983;51.084;11.086;2024-01-15T13:31:11;4.93;;;2.83;;
84759;SDS011;74983;51.084;11.086;2024-01-15T13:33:36;10.10;;;4.10;;
84759;SDS011;74983;51.084;11.086;2024-01-15T13:36:01;8.07;;;4.00;;
84759;SDS011;74983;51.084;11.086;2024-01-15T13:38:28;7.35;;;4.22;;
84759;SDS011;74983;51.084;11.086;2024-01-15T13:40:56;7.90;;;3.45;;
84759;SDS011;74983;51.084;11.086;2024-01-15T13:43:22;4.10;;;3.15;;
84759;SDS011;74983;51.084;11.086;2024-01-15T13:45:47;4.13;;;3.33;;
84759;SDS011;74983;51.084;11.086;2024-01-15T13:48:12;7.23;;;3.70;;
84759;SDS011;74983;51.084;11.086;2024-01-15T13:50:37;6.97;;;3.17;;
84759;SDS011;74983;51.084;11.086;2024-01-15T13:53:03;7.77;;;3.87;;
84759;SDS011;74983;51.084;11.086;2024-01-15T13:55:31;4.55;;;2.90;;
84759;SDS011;74983;51.084;11.086;2024-01-15T13:57:56;5.32;;;3.22;;
84759;SDS011;74983;51.084;11.086;2024-01-15T14:00:22;6.00;;;3.97;;
84759;SDS011;74983;51.084;11.086;2024-01-15T14:02:48;6.30;;;2.92;;
84759;SDS011;74983;51.084;11.086;2024-01-15T14:05:13;3.53;;;2.73;;
84759;SDS011;74983;51.084;11.086;2024-01-15T14:07:38;7.93;;;5.53;;
84759;SDS011;74983;51.084;11.086;2024-01-15T14:10:04;6.23;;;3.10;;
84759;SDS011;74983;51.084;11.086;2024-01-15T14:12:30;6.18;;;2.78;;
84759;SDS011;74983;51.084;11.086;2024-01-15T14:14:56;5.63;;;3.92;;
84759;SDS011;74983;51.084;11.086;2024-01-15T14:17:21;5.73;;;2.87;;
84759;SDS011;74983;51.084;11.086;2024-01-15T14:19:47;5.23;;;2.97;;
84759;SDS011;74983;51.084;11.086;2024-01-15T14:22:12;9.80;;;3.90;;
84759;SDS011;74983;51.084;11.086;2024-01-15T14:24:37;6.25;;;3.20;;
84759;SDS011;74983;51.084;11.086;2024-01-15T14:27:03;4.70;;;3.07;;
84759;SDS011;74983;51.084;11.086;2024-01-15T14:29:30;2.85;;;2.08;;
84759;SDS011;74983;51.084;11.086;2024-01-15T14:31:55;5.97;;;2.80;;